sensor_id;sensor_type;location;lat;lon;timestamp;P1;durP1;ratioP1;P2;durP2;ratioP2
54831;SDS011;40730;53.068;6.572;2023-03-08T00:00:33;7.20;;;1.05;;
54831;SDS011;40730;53.068;6.572;2023-03-08T00:02:59;3.88;;;0.95;;
54831;SDS011;40730;53.068;6.572;2023-03-08T00:49:17;3.20;;;1.42;;
54831;SDS011;40730;53.068;6.572;2023-03-08T00:51:42;8.05;;;1.73;;
54831;SDS011;40730;53.068;6.572;2023-03-08T00:54:08;5.28;;;1.45;;
54831;SDS011;40730;53.068;6.572;2023-03-08T00:56:33;4.97;;;1.88;;
54831;SDS011;40730;53.068;6.572;2023-03-08T00:58:59;2.63;;;1.30;;
54831;SDS011;40730;53.068;6.572;2023-03-08T01:01:25;6.95;;;1.52;;
54831;SDS011;40730;53.068;6.572;2023-03-08T01:03:50;7.25;;;1.90;;
54831;SDS011;40730;53.068;6.572;2023-03-08T01:06:16;5.07;;;1.38;;
54831;SDS011;40730;53.068;6.572;2023-03-08T01:08:42;4.43;;;1.30;;
54831;SDS011;40730;53.068;6.572;2023-03-08T01:11:15;7.55;;;1.20;;
54831;SDS011;40730;53.068;6.572;2023-03-08T01:13:46;7.93;;;1.65;;
54831;SDS011;40730;53.068;6.572;2023-03-08T01:16:13;3.72;;;1.80;;
54831;SDS011;40730;53.068;6.572;2023-03-08T01:18:40;6.22;;;1.38;;
54831;SDS011;40730;53.068;6.572;2023-03-08T01:21:06;4.40;;;1.48;;
54831;SDS011;40730;53.068;6.572;2023-03-08T01:23:31;4.10;;;1.30;;
54831;SDS011;40730;53.068;6.572;2023-03-08T01:26:00;6.22;;;1.25;;
54831;SDS011;40730;53.068;6.572;2023-03-08T01:28:30;3.63;;;1.37;;
54831;SDS011;40730;53.068;6.572;2023-03-08T01:31:00;5.13;;;1.00;;
54831;SDS011;40730;53.068;6.572;2023-03-08T01:33:36;2.78;;;1.02;;
54831;SDS011;40730;53.068;6.572;2023-03-08T01:36:05;3.13;;;1.30;;
54831;SDS011;40730;53.068;6.572;2023-03-08T01:38:32;8.52;;;1.48;;
54831;SDS011;40730;53.068;6.572;2023-03-08T01:40:59;5.60;;;1.25;;
54831;SDS011;40730;53.068;6.572;2023-03-08T01:43:27;6.75;;;1.67;;
54831;SDS011;40730;53.068;6.572;2023-03-08T01:46:03;4.20;;;1.30;;
54831;SDS011;40730;53.068;6.572;2023-03-08T01:48:36;5.65;;;1.45;;
54831;SDS011;40730;53.068;6.572;2023-03-08T01:51:09;5.88;;;1.55;;
54831;SDS011;40730;53.068;6.572;2023-03-08T01:53:36;2.55;;;0.95;;
54831;SDS011;40730;53.068;6.572;2023-03-08T01:56:05;3.67;;;0.80;;
54831;SDS011;40730;53.068;6.572;2023-03-08T01:58:34;7.07;;;1.30;;
54831;SDS011;40730;53.068;6.572;2023-03-08T02:01:00;5.47;;;1.08;;
54831;SDS011;40730;53.068;6.572;2023-03-08T02:03:25;2.13;;;1.15;;
54831;SDS011;40730;53.068;6.572;2023-03-08T02:05:51;3.58;;;0.80;;
54831;SDS011;40730;53.068;6.572;2023-03-08T02:08:17;6.55;;;1.05;;
54831;SDS011;40730;53.068;6.572;2023-03-08T02:10:42;4.38;;;0.90;;
54831;SDS011;40730;53.068;6.572;2023-03-08T02:13:08;2.03;;;0.65;;
54831;SDS011;40730;53.068;6.572;2023-03-08T02:15:35;4.55;;;0.50;;
54831;SDS011;40730;53.068;6.572;2023-03-08T02:18:01;3.90;;;0.88;;
54831;SDS011;40730;53.068;6.572;2023-03-08T02:20:36;3.15;;;1.25;;
54831;SDS011;40730;53.068;6.572;2023-03-08T02:23:07;3.78;;;0.80;;
54831;SDS011;40730;53.068;6.572;2023-03-08T02:25:33;6.38;;;1.67;;
54831;SDS011;40730;53.068;6.572;2023-03-08T02:27:58;6.35;;;0.90;;
54831;SDS011;40730;53.068;6.572;2023-03-08T02:30:26;1.90;;;1.08;;
54831;SDS011;40730;53.068;6.572;2023-03-08T02:32:58;2.90;;;1.20;;
54831;SDS011;40730;53.068;6.572;2023-03-08T02:35:24;2.30;;;1.00;;
54831;SDS011;40730;53.068;6.572;2023-03-08T02:37:50;3.08;;;1.45;;
54831;SDS011;40730;53.068;6.572;2023-03-08T02:40:16;4.70;;;1.25;;
54831;SDS011;40730;53.068;6.572;2023-03-08T02:42:41;4.82;;;1.40;;
54831;SDS011;40730;53.068;6.572;2023-03-08T02:45:07;4.72;;;1.73;;
54831;SDS011;40730;53.068;6.572;2023-03-08T02:47:33;7.15;;;1.73;;
54831;SDS011;40730;53.068;6.572;2023-03-08T02:49:59;4.90;;;1.88;;
54831;SDS011;40730;53.068;6.572;2023-03-08T02:52:24;2.58;;;1.50;;
54831;SDS011;40730;53.068;6.572;2023-03-08T02:54:50;5.78;;;1.70;;
54831;SDS011;40730;53.068;6.572;2023-03-08T02:57:17;6.88;;;1.98;;
54831;SDS011;40730;53.068;6.572;2023-03-08T02:59:43;4.43;;;1.70;;
54831;SDS011;40730;53.068;6.572;2023-03-08T03:02:09;4.78;;;1.70;;
54831;SDS011;40730;53.068;6.572;2023-03-08T03:04:34;4.80;;;1.65;;
54831;SDS011;40730;53.068;6.572;2023-03-08T03:07:00;3.30;;;1.45;;
54831;SDS011;40730;53.068;6.572;2023-03-08T03:09:26;2.42;;;1.10;;
54831;SDS011;40730;53.068;6.572;2023-03-08T03:11:52;5.40;;;2.25;;
54831;SDS011;40730;53.068;6.572;2023-03-08T03:14:18;7.63;;;1.45;;
54831;SDS011;40730;53.068;6.572;2023-03-08T03:16:44;4.85;;;1.63;;
54831;SDS011;40730;53.068;6.572;2023-03-08T03:19:10;5.70;;;1.33;;
54831;SDS011;40730;53.068;6.572;2023-03-08T03:21:37;5.55;;;1.90;;
54831;SDS011;40730;53.068;6.572;2023-03-08T03:24:03;2.58;;;1.70;;
54831;SDS011;40730;53.068;6.572;2023-03-08T03:26:28;4.03;;;1.15;;
54831;SDS011;40730;53.068;6.572;2023-03-08T03:28:54;7.03;;;1.63;;
54831;SDS011;40730;53.068;6.572;2023-03-08T03:31:21;3.15;;;1.05;;
54831;SDS011;40730;53.068;6.572;2023-03-08T03:33:48;4.28;;;1.08;;
54831;SDS011;40730;53.068;6.572;2023-03-08T03:36:18;4.00;;;1.02;;
54831;SDS011;40730;53.068;6.572;2023-03-08T03:38:45;3.65;;;1.10;;
54831;SDS011;40730;53.068;6.572;2023-03-08T03:41:13;3.50;;;1.00;;
54831;SDS011;40730;53.068;6.572;2023-03-08T03:43:40;2.60;;;0.90;;
54831;SDS011;40730;53.068;6.572;2023-03-08T03:46:07;5.38;;;1.15;;
54831;SDS011;40730;53.068;6.572;2023-03-08T03:48:36;4.15;;;1.13;;
54831;SDS011;40730;53.068;6.572;2023-03-08T03:53:29;7.50;;;0.90;;
54831;SDS011;40730;53.068;6.572;2023-03-08T03:56:03;3.03;;;0.95;;
54831;SDS011;40730;53.068;6.572;2023-03-08T03:58:30;3.45;;;0.90;;
54831;SDS011;40730;53.068;6.572;2023-03-08T04:00:56;5.43;;;0.70;;
54831;SDS011;40730;53.068;6.572;2023-03-08T04:03:22;3.53;;;0.80;;
54831;SDS011;40730;53.068;6.572;2023-03-08T04:05:48;3.55;;;0.77;;
54831;SDS011;40730;53.068;6.572;2023-03-08T04:08:13;4.93;;;0.65;;
54831;SDS011;40730;53.068;6.572;2023-03-08T04:10:39;4.57;;;1.25;;
54831;SDS011;40730;53.068;6.572;2023-03-08T04:13:04;4.32;;;0.80;;
54831;SDS011;40730;53.068;6.572;2023-03-08T04:15:30;6.72;;;0.90;;
54831;SDS011;40730;53.068;6.572;2023-03-08T04:17:56;3.83;;;1.10;;
54831;SDS011;40730;53.068;6.572;2023-03-08T04:20:22;4.68;;;0.90;;
54831;SDS011;40730;53.068;6.572;2023-03-08T04:22:47;4.78;;;1.20;;
54831;SDS011;40730;53.068;6.572;2023-03-08T04:25:13;2.13;;;0.80;;
54831;SDS011;40730;53.068;6.572;2023-03-08T04:27:39;5.07;;;0.70;;
54831;SDS011;40730;53.068;6.572;2023-03-08T04:30:04;2.55;;;1.00;;
54831;SDS011;40730;53.068;6.572;2023-03-08T04:32:31;2.58;;;1.00;;
54831;SDS011;40730;53.068;6.572;2023-03-08T04:34:56;6.70;;;1.23;;
54831;SDS011;40730;53.068;6.572;2023-03-08T04:37:22;2.80;;;1.17;;
54831;SDS011;40730;53.068;6.572;2023-03-08T04:39:48;5.35;;;1.38;;
54831;SDS011;40730;53.068;6.572;2023-03-08T04:42:14;6.43;;;1.20;;
54831;SDS011;40730;53.068;6.572;2023-03-08T04:44:39;3.85;;;2.35;;
54831;SDS011;40730;53.068;6.572;2023-03-08T04:47:05;4.82;;;2.22;;
54831;SDS011;40730;53.068;6.572;2023-03-08T04:49:30;7.40;;;1.83;;
54831;SDS011;40730;53.068;6.572;2023-03-08T04:51:56;6.38;;;1.52;;
54831;SDS011;40730;53.068;6.572;2023-03-08T04:54:22;3.67;;;2.00;;
54831;SDS011;40730;53.068;6.572;2023-03-08T04:56:48;3.08;;;1.80;;
54831;SDS011;40730;53.068;6.572;2023-03-08T04:59:13;8.00;;;2.08;;
54831;SDS011;40730;53.068;6.572;2023-03-08T05:01:39;4.78;;;2.10;;
54831;SDS011;40730;53.068;6.572;2023-03-08T05:04:08;4.93;;;2.58;;
54831;SDS011;40730;53.068;6.572;2023-03-08T05:06:34;4.55;;;2.53;;
54831;SDS011;40730;53.068;6.572;2023-03-08T05:09:00;7.70;;;2.35;;
54831;SDS011;40730;53.068;6.572;2023-03-08T05:11:26;4.97;;;2.53;;
54831;SDS011;40730;53.068;6.572;2023-03-08T05:13:53;8.13;;;3.13;;
54831;SDS011;40730;53.068;6.572;2023-03-08T05:16:20;8.52;;;3.50;;
54831;SDS011;40730;53.068;6.572;2023-03-08T05:18:46;11.15;;;4.00;;
54831;SDS011;40730;53.068;6.572;2023-03-08T05:21:13;6.55;;;3.42;;
54831;SDS011;40730;53.068;6.572;2023-03-08T05:23:40;7.40;;;3.63;;
54831;SDS011;40730;53.068;6.572;2023-03-08T05:26:07;4.72;;;3.22;;
54831;SDS011;40730;53.068;6.572;2023-03-08T05:28:34;4.22;;;2.90;;
54831;SDS011;40730;53.068;6.572;2023-03-08T05:31:09;7.05;;;3.38;;
54831;SDS011;40730;53.068;6.572;2023-03-08T05:36:03;9.75;;;5.97;;
54831;SDS011;40730;53.068;6.572;2023-03-08T05:38:29;11.60;;;6.15;;
54831;SDS011;40730;53.068;6.572;2023-03-08T05:40:58;12.80;;;7.28;;
54831;SDS011;40730;53.068;6.572;2023-03-08T05:43:25;11.10;;;7.18;;
54831;SDS011;40730;53.068;6.572;2023-03-08T05:45:55;15.43;;;8.10;;
54831;SDS011;40730;53.068;6.572;2023-03-08T05:48:22;13.93;;;9.82;;
54831;SDS011;40730;53.068;6.572;2023-03-08T05:50:47;20.48;;;11.15;;
54831;SDS011;40730;53.068;6.572;2023-03-08T05:53:13;19.83;;;11.25;;
54831;SDS011;40730;53.068;6.572;2023-03-08T05:55:39;16.20;;;9.40;;
54831;SDS011;40730;53.068;6.572;2023-03-08T05:58:04;22.25;;;13.18;;
54831;SDS011;40730;53.068;6.572;2023-03-08T06:00:30;17.92;;;13.27;;
54831;SDS011;40730;53.068;6.572;2023-03-08T06:02:57;22.42;;;13.90;;
54831;SDS011;40730;53.068;6.572;2023-03-08T06:05:24;26.30;;;15.70;;
54831;SDS011;40730;53.068;6.572;2023-03-08T06:07:49;25.27;;;16.17;;
54831;SDS011;40730;53.068;6.572;2023-03-08T06:10:15;26.33;;;16.30;;
54831;SDS011;40730;53.068;6.572;2023-03-08T06:12:41;24.95;;;17.23;;
54831;SDS011;40730;53.068;6.572;2023-03-08T06:15:07;23.70;;;15.60;;
54831;SDS011;40730;53.068;6.572;2023-03-08T06:17:33;26.92;;;19.42;;
54831;SDS011;40730;53.068;6.572;2023-03-08T06:19:59;34.25;;;20.40;;
54831;SDS011;40730;53.068;6.572;2023-03-08T06:22:24;26.20;;;17.88;;
54831;SDS011;40730;53.068;6.572;2023-03-08T06:24:50;26.58;;;18.30;;
54831;SDS011;40730;53.068;6.572;2023-03-08T06:27:15;31.98;;;19.50;;
54831;SDS011;40730;53.068;6.572;2023-03-08T06:29:41;30.90;;;19.15;;
54831;SDS011;40730;53.068;6.572;2023-03-08T06:32:07;29.55;;;19.83;;
54831;SDS011;40730;53.068;6.572;2023-03-08T06:34:33;33.63;;;20.33;;
54831;SDS011;40730;53.068;6.572;2023-03-08T06:36:58;26.83;;;19.20;;
54831;SDS011;40730;53.068;6.572;2023-03-08T06:39:24;28.23;;;19.27;;
54831;SDS011;40730;53.068;6.572;2023-03-08T06:41:50;26.23;;;19.15;;
54831;SDS011;40730;53.068;6.572;2023-03-08T06:44:16;27.35;;;18.85;;
54831;SDS011;40730;53.068;6.572;2023-03-08T06:46:42;31.35;;;19.75;;
54831;SDS011;40730;53.068;6.572;2023-03-08T06:49:07;29.75;;;20.27;;
54831;SDS011;40730;53.068;6.572;2023-03-08T06:51:33;37.33;;;22.45;;
54831;SDS011;40730;53.068;6.572;2023-03-08T06:53:59;31.38;;;20.50;;
54831;SDS011;40730;53.068;6.572;2023-03-08T06:56:24;30.15;;;20.10;;
54831;SDS011;40730;53.068;6.572;2023-03-08T06:58:52;31.58;;;20.45;;
54831;SDS011;40730;53.068;6.572;2023-03-08T07:01:17;33.70;;;22.55;;
54831;SDS011;40730;53.068;6.572;2023-03-08T07:03:43;65.85;;;39.33;;
54831;SDS011;40730;53.068;6.572;2023-03-08T07:06:10;61.63;;;38.28;;
54831;SDS011;40730;53.068;6.572;2023-03-08T07:08:36;54.88;;;33.92;;
54831;SDS011;40730;53.068;6.572;2023-03-08T07:11:04;35.33;;;25.33;;
54831;SDS011;40730;53.068;6.572;2023-03-08T07:13:30;40.50;;;28.95;;
54831;SDS011;40730;53.068;6.572;2023-03-08T07:15:56;41.55;;;27.55;;
54831;SDS011;40730;53.068;6.572;2023-03-08T07:18:22;37.15;;;24.33;;
54831;SDS011;40730;53.068;6.572;2023-03-08T07:20:52;35.85;;;26.40;;
54831;SDS011;40730;53.068;6.572;2023-03-08T07:23:19;39.92;;;25.98;;
54831;SDS011;40730;53.068;6.572;2023-03-08T07:25:45;60.63;;;36.30;;
54831;SDS011;40730;53.068;6.572;2023-03-08T07:28:10;28.35;;;19.67;;
54831;SDS011;40730;53.068;6.572;2023-03-08T07:30:36;26.35;;;19.80;;
54831;SDS011;40730;53.068;6.572;2023-03-08T07:33:01;27.50;;;19.23;;
54831;SDS011;40730;53.068;6.572;2023-03-08T07:35:27;25.65;;;19.27;;
54831;SDS011;40730;53.068;6.572;2023-03-08T07:37:53;26.08;;;19.17;;
54831;SDS011;40730;53.068;6.572;2023-03-08T07:40:18;32.60;;;22.25;;
54831;SDS011;40730;53.068;6.572;2023-03-08T07:42:44;23.58;;;18.38;;
54831;SDS011;40730;53.068;6.572;2023-03-08T07:45:10;25.27;;;19.55;;
54831;SDS011;40730;53.068;6.572;2023-03-08T07:47:36;32.95;;;20.10;;
54831;SDS011;40730;53.068;6.572;2023-03-08T07:50:02;23.90;;;19.73;;
54831;SDS011;40730;53.068;6.572;2023-03-08T07:52:28;25.52;;;17.33;;
54831;SDS011;40730;53.068;6.572;2023-03-08T07:54:55;23.10;;;17.02;;
54831;SDS011;40730;53.068;6.572;2023-03-08T07:57:20;21.85;;;16.42;;
54831;SDS011;40730;53.068;6.572;2023-03-08T07:59:46;18.17;;;13.20;;
54831;SDS011;40730;53.068;6.572;2023-03-08T08:02:14;21.00;;;14.30;;
54831;SDS011;40730;53.068;6.572;2023-03-08T08:04:40;16.08;;;14.20;;
54831;SDS011;40730;53.068;6.572;2023-03-08T08:07:06;18.65;;;14.32;;
54831;SDS011;40730;53.068;6.572;2023-03-08T08:09:35;20.88;;;15.00;;
54831;SDS011;40730;53.068;6.572;2023-03-08T08:12:01;17.23;;;13.23;;
54831;SDS011;40730;53.068;6.572;2023-03-08T08:14:28;21.80;;;14.57;;
54831;SDS011;40730;53.068;6.572;2023-03-08T08:16:53;16.88;;;12.95;;
54831;SDS011;40730;53.068;6.572;2023-03-08T08:19:19;17.55;;;13.75;;
54831;SDS011;40730;53.068;6.572;2023-03-08T08:21:44;15.68;;;12.82;;
54831;SDS011;40730;53.068;6.572;2023-03-08T08:24:10;17.38;;;13.43;;
54831;SDS011;40730;53.068;6.572;2023-03-08T08:26:36;16.58;;;13.25;;
54831;SDS011;40730;53.068;6.572;2023-03-08T08:29:03;14.23;;;11.38;;
54831;SDS011;40730;53.068;6.572;2023-03-08T08:31:29;12.50;;;10.25;;
54831;SDS011;40730;53.068;6.572;2023-03-08T08:33:58;17.63;;;10.80;;
54831;SDS011;40730;53.068;6.572;2023-03-08T08:36:25;14.43;;;10.43;;
54831;SDS011;40730;53.068;6.572;2023-03-08T08:38:51;14.88;;;10.35;;
54831;SDS011;40730;53.068;6.572;2023-03-08T08:41:18;11.55;;;10.20;;
54831;SDS011;40730;53.068;6.572;2023-03-08T08:43:45;11.65;;;9.00;;
54831;SDS011;40730;53.068;6.572;2023-03-08T08:46:12;10.10;;;8.05;;
54831;SDS011;40730;53.068;6.572;2023-03-08T08:48:38;10.38;;;7.95;;
54831;SDS011;40730;53.068;6.572;2023-03-08T08:51:05;10.60;;;7.35;;
54831;SDS011;40730;53.068;6.572;2023-03-08T08:53:33;12.60;;;7.30;;
54831;SDS011;40730;53.068;6.572;2023-03-08T08:56:08;9.05;;;8.15;;
54831;SDS011;40730;53.068;6.572;2023-03-08T08:58:41;8.52;;;7.38;;
54831;SDS011;40730;53.068;6.572;2023-03-08T09:01:13;9.27;;;6.95;;
54831;SDS011;40730;53.068;6.572;2023-03-08T09:03:40;5.88;;;5.38;;
54831;SDS011;40730;53.068;6.572;2023-03-08T09:06:05;8.45;;;6.30;;
54831;SDS011;40730;53.068;6.572;2023-03-08T09:08:31;8.55;;;6.47;;
54831;SDS011;40730;53.068;6.572;2023-03-08T09:11:00;6.78;;;5.65;;
54831;SDS011;40730;53.068;6.572;2023-03-08T09:13:28;9.82;;;5.43;;
54831;SDS011;40730;53.068;6.572;2023-03-08T09:15:54;7.60;;;6.13;;
54831;SDS011;40730;53.068;6.572;2023-03-08T09:18:20;9.82;;;5.18;;
54831;SDS011;40730;53.068;6.572;2023-03-08T09:20:45;9.43;;;5.38;;
54831;SDS011;40730;53.068;6.572;2023-03-08T09:23:11;4.95;;;4.43;;
54831;SDS011;40730;53.068;6.572;2023-03-08T09:25:36;7.63;;;5.32;;
54831;SDS011;40730;53.068;6.572;2023-03-08T09:28:02;5.13;;;4.13;;
54831;SDS011;40730;53.068;6.572;2023-03-08T09:30:28;6.05;;;4.60;;
54831;SDS011;40730;53.068;6.572;2023-03-08T09:32:54;4.40;;;4.00;;
54831;SDS011;40730;53.068;6.572;2023-03-08T09:35:20;5.07;;;3.47;;
54831;SDS011;40730;53.068;6.572;2023-03-08T09:37:45;5.35;;;3.55;;
54831;SDS011;40730;53.068;6.572;2023-03-08T09:40:16;6.97;;;2.90;;
54831;SDS011;40730;53.068;6.572;2023-03-08T09:42:44;5.20;;;2.90;;
54831;SDS011;40730;53.068;6.572;2023-03-08T09:47:52;3.67;;;2.47;;
54831;SDS011;40730;53.068;6.572;2023-03-08T09:53:34;8.70;;;2.22;;
54831;SDS011;40730;53.068;6.572;2023-03-08T09:56:24;5.13;;;1.98;;
54831;SDS011;40730;53.068;6.572;2023-03-08T10:01:57;1.63;;;1.00;;
54831;SDS011;40730;53.068;6.572;2023-03-08T10:09:44;2.22;;;0.88;;
54831;SDS011;40730;53.068;6.572;2023-03-08T10:12:37;2.15;;;1.38;;
54831;SDS011;40730;53.068;6.572;2023-03-08T10:15:19;3.30;;;1.60;;
54831;SDS011;40730;53.068;6.572;2023-03-08T10:17:48;2.97;;;1.25;;
54831;SDS011;40730;53.068;6.572;2023-03-08T10:20:26;2.05;;;1.15;;
54831;SDS011;40730;53.068;6.572;2023-03-08T10:22:59;4.05;;;1.38;;
54831;SDS011;40730;53.068;6.572;2023-03-08T10:25:46;3.10;;;1.20;;
54831;SDS011;40730;53.068;6.572;2023-03-08T10:28:17;4.13;;;0.88;;
54831;SDS011;40730;53.068;6.572;2023-03-08T10:30:48;1.80;;;0.50;;
54831;SDS011;40730;53.068;6.572;2023-03-08T10:33:20;2.17;;;0.60;;
54831;SDS011;40730;53.068;6.572;2023-03-08T10:38:20;2.28;;;0.30;;
54831;SDS011;40730;53.068;6.572;2023-03-08T10:40:46;0.35;;;0.10;;
54831;SDS011;40730;53.068;6.572;2023-03-08T10:43:17;0.68;;;0.20;;
54831;SDS011;40730;53.068;6.572;2023-03-08T10:46:04;0.30;;;0.10;;
54831;SDS011;40730;53.068;6.572;2023-03-08T10:48:35;0.45;;;0.17;;
54831;SDS011;40730;53.068;6.572;2023-03-08T10:51:02;1.55;;;0.20;;
54831;SDS011;40730;53.068;6.572;2023-03-08T10:53:30;1.33;;;0.50;;
54831;SDS011;40730;53.068;6.572;2023-03-08T10:55:57;2.35;;;0.38;;
54831;SDS011;40730;53.068;6.572;2023-03-08T11:01:03;0.90;;;0.30;;
54831;SDS011;40730;53.068;6.572;2023-03-08T11:03:29;1.23;;;0.30;;
54831;SDS011;40730;53.068;6.572;2023-03-08T11:08:35;2.50;;;0.60;;
54831;SDS011;40730;53.068;6.572;2023-03-08T11:11:06;2.47;;;0.57;;
54831;SDS011;40730;53.068;6.572;2023-03-08T11:24:48;2.78;;;0.30;;
54831;SDS011;40730;53.068;6.572;2023-03-08T11:58:00;0.82;;;0.30;;
54831;SDS011;40730;53.068;6.572;2023-03-08T12:00:37;4.10;;;0.70;;
54831;SDS011;40730;53.068;6.572;2023-03-08T12:05:41;3.45;;;0.30;;
54831;SDS011;40730;53.068;6.572;2023-03-08T12:08:18;1.17;;;0.30;;
54831;SDS011;40730;53.068;6.572;2023-03-08T12:11:07;3.90;;;0.60;;
54831;SDS011;40730;53.068;6.572;2023-03-08T12:13:52;3.80;;;1.10;;
54831;SDS011;40730;53.068;6.572;2023-03-08T12:16:24;4.00;;;1.83;;
54831;SDS011;40730;53.068;6.572;2023-03-08T12:21:49;1.75;;;0.35;;
54831;SDS011;40730;53.068;6.572;2023-03-08T12:32:14;0.60;;;0.20;;
54831;SDS011;40730;53.068;6.572;2023-03-08T12:34:43;1.10;;;0.50;;
54831;SDS011;40730;53.068;6.572;2023-03-08T12:37:23;1.50;;;0.32;;
54831;SDS011;40730;53.068;6.572;2023-03-08T12:39:58;0.70;;;0.20;;
54831;SDS011;40730;53.068;6.572;2023-03-08T12:42:36;2.10;;;0.40;;
54831;SDS011;40730;53.068;6.572;2023-03-08T12:50:28;2.55;;;0.40;;
54831;SDS011;40730;53.068;6.572;2023-03-08T12:53:00;2.20;;;0.40;;
54831;SDS011;40730;53.068;6.572;2023-03-08T12:55:27;1.85;;;0.63;;
54831;SDS011;40730;53.068;6.572;2023-03-08T12:58:00;1.70;;;0.50;;
54831;SDS011;40730;53.068;6.572;2023-03-08T13:00:34;1.45;;;0.40;;
54831;SDS011;40730;53.068;6.572;2023-03-08T13:03:06;3.15;;;0.45;;
54831;SDS011;40730;53.068;6.572;2023-03-08T13:06:15;2.50;;;0.28;;
54831;SDS011;40730;53.068;6.572;2023-03-08T13:09:15;2.15;;;0.60;;
54831;SDS011;40730;53.068;6.572;2023-03-08T13:11:45;1.35;;;0.30;;
54831;SDS011;40730;53.068;6.572;2023-03-08T13:14:58;1.65;;;0.40;;
54831;SDS011;40730;53.068;6.572;2023-03-08T13:22:24;1.65;;;0.70;;
54831;SDS011;40730;53.068;6.572;2023-03-08T13:25:17;1.70;;;0.60;;
54831;SDS011;40730;53.068;6.572;2023-03-08T13:28:23;1.77;;;1.25;;
54831;SDS011;40730;53.068;6.572;2023-03-08T13:35:58;3.40;;;0.98;;
54831;SDS011;40730;53.068;6.572;2023-03-08T13:38:30;5.40;;;1.75;;
54831;SDS011;40730;53.068;6.572;2023-03-08T13:40:58;2.42;;;0.30;;
54831;SDS011;40730;53.068;6.572;2023-03-08T13:43:25;3.95;;;0.40;;
54831;SDS011;40730;53.068;6.572;2023-03-08T13:45:58;1.20;;;0.30;;
54831;SDS011;40730;53.068;6.572;2023-03-08T13:48:27;1.52;;;0.57;;
54831;SDS011;40730;53.068;6.572;2023-03-08T13:50:55;3.45;;;0.70;;
54831;SDS011;40730;53.068;6.572;2023-03-08T13:53:32;2.05;;;0.40;;
54831;SDS011;40730;53.068;6.572;2023-03-08T13:56:01;2.63;;;0.40;;
54831;SDS011;40730;53.068;6.572;2023-03-08T13:58:46;2.05;;;0.40;;
54831;SDS011;40730;53.068;6.572;2023-03-08T14:01:18;2.30;;;0.70;;
54831;SDS011;40730;53.068;6.572;2023-03-08T14:03:49;3.42;;;0.57;;
54831;SDS011;40730;53.068;6.572;2023-03-08T14:06:18;2.03;;;0.70;;
54831;SDS011;40730;53.068;6.572;2023-03-08T14:08:54;2.95;;;0.60;;
54831;SDS011;40730;53.068;6.572;2023-03-08T14:11:36;2.75;;;0.50;;
54831;SDS011;40730;53.068;6.572;2023-03-08T14:14:04;3.63;;;0.52;;
54831;SDS011;40730;53.068;6.572;2023-03-08T14:16:38;1.33;;;0.63;;
54831;SDS011;40730;53.068;6.572;2023-03-08T14:19:29;1.63;;;0.43;;
54831;SDS011;40730;53.068;6.572;2023-03-08T14:22:02;1.67;;;0.50;;
54831;SDS011;40730;53.068;6.572;2023-03-08T14:24:39;1.60;;;0.32;;
54831;SDS011;40730;53.068;6.572;2023-03-08T14:29:41;1.40;;;0.30;;
54831;SDS011;40730;53.068;6.572;2023-03-08T14:34:38;3.50;;;0.40;;
54831;SDS011;40730;53.068;6.572;2023-03-08T14:39:35;1.35;;;0.80;;
54831;SDS011;40730;53.068;6.572;2023-03-08T14:42:17;2.95;;;0.50;;
54831;SDS011;40730;53.068;6.572;2023-03-08T14:45:04;2.40;;;0.60;;
54831;SDS011;40730;53.068;6.572;2023-03-08T14:47:47;2.63;;;0.52;;
54831;SDS011;40730;53.068;6.572;2023-03-08T14:50:27;1.38;;;0.50;;
54831;SDS011;40730;53.068;6.572;2023-03-08T14:52:55;1.65;;;0.43;;
54831;SDS011;40730;53.068;6.572;2023-03-08T14:55:35;2.72;;;0.57;;
54831;SDS011;40730;53.068;6.572;2023-03-08T14:58:04;1.48;;;0.40;;
54831;SDS011;40730;53.068;6.572;2023-03-08T15:00:35;2.08;;;0.38;;
54831;SDS011;40730;53.068;6.572;2023-03-08T15:03:02;1.52;;;0.30;;
54831;SDS011;40730;53.068;6.572;2023-03-08T15:05:27;2.22;;;0.50;;
54831;SDS011;40730;53.068;6.572;2023-03-08T15:07:54;3.13;;;0.80;;
54831;SDS011;40730;53.068;6.572;2023-03-08T15:12:55;3.15;;;0.60;;
54831;SDS011;40730;53.068;6.572;2023-03-08T15:15:21;2.72;;;1.00;;
54831;SDS011;40730;53.068;6.572;2023-03-08T15:17:47;2.15;;;0.68;;
54831;SDS011;40730;53.068;6.572;2023-03-08T15:20:13;3.15;;;0.95;;
54831;SDS011;40730;53.068;6.572;2023-03-08T15:22:43;5.57;;;0.95;;
54831;SDS011;40730;53.068;6.572;2023-03-08T15:25:13;3.75;;;1.00;;
54831;SDS011;40730;53.068;6.572;2023-03-08T15:27:40;2.45;;;1.02;;
54831;SDS011;40730;53.068;6.572;2023-03-08T15:30:11;2.90;;;1.63;;
54831;SDS011;40730;53.068;6.572;2023-03-08T15:32:48;5.35;;;1.23;;
54831;SDS011;40730;53.068;6.572;2023-03-08T15:35:14;2.90;;;1.27;;
54831;SDS011;40730;53.068;6.572;2023-03-08T15:37:40;4.47;;;2.22;;
54831;SDS011;40730;53.068;6.572;2023-03-08T15:40:10;4.18;;;2.00;;
54831;SDS011;40730;53.068;6.572;2023-03-08T15:42:56;5.55;;;2.38;;
54831;SDS011;40730;53.068;6.572;2023-03-08T15:45:22;5.38;;;2.53;;
54831;SDS011;40730;53.068;6.572;2023-03-08T15:48:01;3.53;;;2.08;;
54831;SDS011;40730;53.068;6.572;2023-03-08T15:50:37;5.25;;;2.50;;
54831;SDS011;40730;53.068;6.572;2023-03-08T15:53:03;4.35;;;2.17;;
54831;SDS011;40730;53.068;6.572;2023-03-08T15:55:30;4.57;;;1.70;;
54831;SDS011;40730;53.068;6.572;2023-03-08T15:57:56;2.92;;;1.52;;
54831;SDS011;40730;53.068;6.572;2023-03-08T16:00:22;5.05;;;1.27;;
54831;SDS011;40730;53.068;6.572;2023-03-08T16:02:49;2.72;;;1.40;;
54831;SDS011;40730;53.068;6.572;2023-03-08T16:05:16;2.15;;;1.10;;
54831;SDS011;40730;53.068;6.572;2023-03-08T16:07:43;3.53;;;1.00;;
54831;SDS011;40730;53.068;6.572;2023-03-08T16:10:11;3.42;;;1.35;;
54831;SDS011;40730;53.068;6.572;2023-03-08T16:12:38;3.97;;;1.30;;
54831;SDS011;40730;53.068;6.572;2023-03-08T16:15:05;3.75;;;0.90;;
54831;SDS011;40730;53.068;6.572;2023-03-08T16:17:31;1.80;;;0.90;;
54831;SDS011;40730;53.068;6.572;2023-03-08T16:19:57;2.33;;;0.60;;
54831;SDS011;40730;53.068;6.572;2023-03-08T16:22:22;2.53;;;0.90;;
54831;SDS011;40730;53.068;6.572;2023-03-08T16:24:48;2.50;;;1.27;;
54831;SDS011;40730;53.068;6.572;2023-03-08T16:27:14;2.50;;;0.90;;
54831;SDS011;40730;53.068;6.572;2023-03-08T16:29:40;2.20;;;0.60;;
54831;SDS011;40730;53.068;6.572;2023-03-08T16:32:05;2.05;;;0.70;;
54831;SDS011;40730;53.068;6.572;2023-03-08T16:34:31;3.05;;;0.45;;
54831;SDS011;40730;53.068;6.572;2023-03-08T16:36:57;2.78;;;0.52;;
54831;SDS011;40730;53.068;6.572;2023-03-08T16:39:23;1.88;;;0.52;;
54831;SDS011;40730;53.068;6.572;2023-03-08T16:41:49;1.33;;;0.57;;
54831;SDS011;40730;53.068;6.572;2023-03-08T16:46:45;1.67;;;0.60;;
54831;SDS011;40730;53.068;6.572;2023-03-08T16:49:11;2.40;;;0.52;;
54831;SDS011;40730;53.068;6.572;2023-03-08T16:51:37;2.28;;;0.43;;
54831;SDS011;40730;53.068;6.572;2023-03-08T16:54:03;2.90;;;0.50;;
54831;SDS011;40730;53.068;6.572;2023-03-08T16:56:29;1.38;;;0.60;;
54831;SDS011;40730;53.068;6.572;2023-03-08T16:58:56;2.42;;;0.85;;
54831;SDS011;40730;53.068;6.572;2023-03-08T17:01:23;3.72;;;0.80;;
54831;SDS011;40730;53.068;6.572;2023-03-08T17:03:49;5.85;;;3.72;;
54831;SDS011;40730;53.068;6.572;2023-03-08T17:06:16;2.72;;;1.10;;
54831;SDS011;40730;53.068;6.572;2023-03-08T17:08:44;4.18;;;3.10;;
54831;SDS011;40730;53.068;6.572;2023-03-08T17:11:17;6.75;;;2.53;;
54831;SDS011;40730;53.068;6.572;2023-03-08T17:13:50;4.60;;;1.92;;
54831;SDS011;40730;53.068;6.572;2023-03-08T17:16:20;2.28;;;0.93;;
54831;SDS011;40730;53.068;6.572;2023-03-08T17:18:50;3.00;;;1.70;;
54831;SDS011;40730;53.068;6.572;2023-03-08T17:21:16;3.25;;;1.52;;
54831;SDS011;40730;53.068;6.572;2023-03-08T17:23:43;3.03;;;1.33;;
54831;SDS011;40730;53.068;6.572;2023-03-08T17:26:10;3.97;;;2.10;;